Aviation Digital Data Service (ADDS)

Output produced by METARs form (1037 UTC 18 June 2019)
found at http://www.aviationweather.gov/metar/data/
 
METAR text: ETSL 181020Z 27004KT 9999 FEW040 24/14 Q1017 BLU+BLU+
Conditions at: ETSL (LECHFELD (GER-AF, DE) observed 1020 UTC 18 June 2019
Temperature: 24.0°C (75°F)
Dewpoint: 14.0°C (57°F) [RH = 54%]
Pressure (altimeter): 30.03 inches Hg (1017.0 mb)
Winds: from the W (270 degrees) at 5 MPH (4 knots; 2.1 m/s)
Visibility: 6 or more miles (10+ km)
Ceiling: at least 12,000 feet AGL
Clouds: few clouds at 4000 feet AGL
Weather: no significant weather observed at this time

METAR text: ETSL 180920Z 27002KT 9999 FEW030 23/15 Q1017 BLU+BLU+
Conditions at: ETSL (LECHFELD (GER-AF, DE) observed 0920 UTC 18 June 2019
Temperature: 23.0°C (73°F)
Dewpoint: 15.0°C (59°F) [RH = 61%]
Pressure (altimeter): 30.03 inches Hg (1017.0 mb)
Winds: from the W (270 degrees) at 2 MPH (2 knots; 1.0 m/s)
Visibility: 6 or more miles (10+ km)
Ceiling: at least 12,000 feet AGL
Clouds: few clouds at 3000 feet AGL
Weather: no significant weather observed at this time

METAR text: ETSL 180820Z 04002KT 9999 FEW025 22/15 Q1017 BLU+BLU+
Conditions at: ETSL (LECHFELD (GER-AF, DE) observed 0820 UTC 18 June 2019
Temperature: 22.0°C (72°F)
Dewpoint: 15.0°C (59°F) [RH = 65%]
Pressure (altimeter): 30.03 inches Hg (1017.0 mb)
Winds: from the NE (40 degrees) at 2 MPH (2 knots; 1.0 m/s)
Visibility: 6 or more miles (10+ km)
Ceiling: at least 12,000 feet AGL
Clouds: few clouds at 2500 feet AGL
Weather: no significant weather observed at this time

METAR text: ETSL 180720Z 05001KT 9999 FEW300 20/14 Q1017 BLU+BLU+
Conditions at: ETSL (LECHFELD (GER-AF, DE) observed 0720 UTC 18 June 2019
Temperature: 20.0°C (68°F)
Dewpoint: 14.0°C (57°F) [RH = 68%]
Pressure (altimeter): 30.03 inches Hg (1017.0 mb)
Winds: from the NE (50 degrees) at 1 MPH (1 knots; 0.5 m/s)
Visibility: 6 or more miles (10+ km)
Ceiling: at least 12,000 feet AGL
Clouds: few clouds at 30000 feet AGL
Weather: no significant weather observed at this time

METAR text: ETSL 180620Z 03001KT 9999 FEW300 18/14 Q1017 BLU+BLU+
Conditions at: ETSL (LECHFELD (GER-AF, DE) observed 0620 UTC 18 June 2019
Temperature: 18.0°C (64°F)
Dewpoint: 14.0°C (57°F) [RH = 77%]
Pressure (altimeter): 30.03 inches Hg (1017.0 mb)
Winds: from the NNE (30 degrees) at 1 MPH (1 knots; 0.5 m/s)
Visibility: 6 or more miles (10+ km)
Ceiling: at least 12,000 feet AGL
Clouds: few clouds at 30000 feet AGL
Weather: no significant weather observed at this time

METAR text: ETSL 180520Z 24001KT 9999 FEW300 17/14 Q1017 BLU+
Conditions at: ETSL (LECHFELD (GER-AF, DE) observed 0520 UTC 18 June 2019
Temperature: 17.0°C (63°F)
Dewpoint: 14.0°C (57°F) [RH = 82%]
Pressure (altimeter): 30.03 inches Hg (1017.0 mb)
Winds: from the WSW (240 degrees) at 1 MPH (1 knots; 0.5 m/s)
Visibility: 6 or more miles (10+ km)
Ceiling: at least 12,000 feet AGL
Clouds: few clouds at 30000 feet AGL
Weather: no significant weather observed at this time

METAR text: ETSL 180420Z 17003KT 9999 BCFG MIFG FEW300 11/11 Q1017 BLU+BLU+
Conditions at: ETSL (LECHFELD (GER-AF, DE) observed 0420 UTC 18 June 2019
Temperature: 11.0°C (52°F)
Dewpoint: 11.0°C (52°F) [RH = 100%]
Pressure (altimeter): 30.03 inches Hg (1017.0 mb)
Winds: from the S (170 degrees) at 3 MPH (3 knots; 1.5 m/s)
Visibility: 6 or more miles (10+ km)
Ceiling: at least 12,000 feet AGL
Clouds: few clouds at 30000 feet AGL
Weather: BCFG MIFG  (patches of fog, shallow fog)

METAR text: ETSL 180320Z VRB01KT 9999 BCFG MIFG SCT300 11/10 Q1017 BLU+
Conditions at: ETSL (LECHFELD (GER-AF, DE) observed 0320 UTC 18 June 2019
Temperature: 11.0°C (52°F)
Dewpoint: 10.0°C (50°F) [RH = 94%]
Pressure (altimeter): 30.03 inches Hg (1017.0 mb)
Winds: variable direction winds at 1 MPH (1 knots; 0.5 m/s)
Visibility: 6 or more miles (10+ km)
Ceiling: at least 12,000 feet AGL
Clouds: scattered clouds at 30000 feet AGL
Weather: BCFG MIFG  (patches of fog, shallow fog)

METAR text: ETSL 180220Z 24001KT 9999 MIFG SCT300 12/11 Q1017 BLU+
Conditions at: ETSL (LECHFELD (GER-AF, DE) observed 0220 UTC 18 June 2019
Temperature: 12.0°C (54°F)
Dewpoint: 11.0°C (52°F) [RH = 94%]
Pressure (altimeter): 30.03 inches Hg (1017.0 mb)
Winds: from the WSW (240 degrees) at 1 MPH (1 knots; 0.5 m/s)
Visibility: 6 or more miles (10+ km)
Ceiling: at least 12,000 feet AGL
Clouds: scattered clouds at 30000 feet AGL
Weather: MIFG  (shallow fog)

METAR text: ETSL 180120Z 33002KT 9999 MIFG SCT300 13/12 Q1017 BLU+
Conditions at: ETSL (LECHFELD (GER-AF, DE) observed 0120 UTC 18 June 2019
Temperature: 13.0°C (55°F)
Dewpoint: 12.0°C (54°F) [RH = 94%]
Pressure (altimeter): 30.03 inches Hg (1017.0 mb)
Winds: from the NNW (330 degrees) at 2 MPH (2 knots; 1.0 m/s)
Visibility: 6 or more miles (10+ km)
Ceiling: at least 12,000 feet AGL
Clouds: scattered clouds at 30000 feet AGL
Weather: MIFG  (shallow fog)

METAR text: ETSL 180020Z 00000KT 9999 MIFG SCT300 13/12 Q1017 BLU+
Conditions at: ETSL (LECHFELD (GER-AF, DE) observed 0020 UTC 18 June 2019
Temperature: 13.0°C (55°F)
Dewpoint: 12.0°C (54°F) [RH = 94%]
Pressure (altimeter): 30.03 inches Hg (1017.0 mb)
Winds: calm
Visibility: 6 or more miles (10+ km)
Ceiling: at least 12,000 feet AGL
Clouds: scattered clouds at 30000 feet AGL
Weather: MIFG  (shallow fog)

METAR text: ETSL 172320Z 36002KT 9999 BKN300 14/13 Q1018 BLU+
Conditions at: ETSL (LECHFELD (GER-AF, DE) observed 2320 UTC 17 June 2019
Temperature: 14.0°C (57°F)
Dewpoint: 13.0°C (55°F) [RH = 94%]
Pressure (altimeter): 30.06 inches Hg (1018.0 mb)
Winds: from the N (360 degrees) at 2 MPH (2 knots; 1.0 m/s)
Visibility: 6 or more miles (10+ km)
Ceiling: 30000 feet AGL
Clouds: broken clouds at 30000 feet AGL
Weather: no significant weather observed at this time

METAR text: ETSL 172220Z 00000KT 9999 BKN300 16/13 Q1018 BLU+
Conditions at: ETSL (LECHFELD (GER-AF, DE) observed 2220 UTC 17 June 2019
Temperature: 16.0°C (61°F)
Dewpoint: 13.0°C (55°F) [RH = 82%]
Pressure (altimeter): 30.06 inches Hg (1018.0 mb)
Winds: calm
Visibility: 6 or more miles (10+ km)
Ceiling: 30000 feet AGL
Clouds: broken clouds at 30000 feet AGL
Weather: no significant weather observed at this time

METAR text: ETSL 172120Z 06004KT 9999 FEW050 BKN300 16/13 Q1018 BLU+
Conditions at: ETSL (LECHFELD (GER-AF, DE) observed 2120 UTC 17 June 2019
Temperature: 16.0°C (61°F)
Dewpoint: 13.0°C (55°F) [RH = 82%]
Pressure (altimeter): 30.06 inches Hg (1018.0 mb)
Winds: from the ENE (60 degrees) at 5 MPH (4 knots; 2.1 m/s)
Visibility: 6 or more miles (10+ km)
Ceiling: 30000 feet AGL
Clouds: few clouds at 5000 feet AGL
broken clouds at 30000 feet AGL
Weather: no significant weather observed at this time

METAR text: ETSL 172020Z 06003KT 9999 FEW050 BKN300 17/13 Q1018 BLU+
Conditions at: ETSL (LECHFELD (GER-AF, DE) observed 2020 UTC 17 June 2019
Temperature: 17.0°C (63°F)
Dewpoint: 13.0°C (55°F) [RH = 77%]
Pressure (altimeter): 30.06 inches Hg (1018.0 mb)
Winds: from the ENE (60 degrees) at 3 MPH (3 knots; 1.5 m/s)
Visibility: 6 or more miles (10+ km)
Ceiling: 30000 feet AGL
Clouds: few clouds at 5000 feet AGL
broken clouds at 30000 feet AGL
Weather: no significant weather observed at this time

METAR text: ETSL 171920Z 04005KT 9999 FEW045 BKN300 19/13 Q1018 BLU+
Conditions at: ETSL (LECHFELD (GER-AF, DE) observed 1920 UTC 17 June 2019
Temperature: 19.0°C (66°F)
Dewpoint: 13.0°C (55°F) [RH = 68%]
Pressure (altimeter): 30.06 inches Hg (1018.0 mb)
Winds: from the NE (40 degrees) at 6 MPH (5 knots; 2.6 m/s)
Visibility: 6 or more miles (10+ km)
Ceiling: 30000 feet AGL
Clouds: few clouds at 4500 feet AGL
broken clouds at 30000 feet AGL
Weather: no significant weather observed at this time

METAR text: ETSL 171820Z 05007KT 9999 FEW040 BKN300 22/14 Q1018 BLU+
Conditions at: ETSL (LECHFELD (GER-AF, DE) observed 1820 UTC 17 June 2019
Temperature: 22.0°C (72°F)
Dewpoint: 14.0°C (57°F) [RH = 60%]
Pressure (altimeter): 30.06 inches Hg (1018.0 mb)
Winds: from the NE (50 degrees) at 8 MPH (7 knots; 3.6 m/s)
Visibility: 6 or more miles (10+ km)
Ceiling: 30000 feet AGL
Clouds: few clouds at 4000 feet AGL
broken clouds at 30000 feet AGL
Weather: no significant weather observed at this time

METAR text: ETSL 171720Z 05009KT 9999 FEW040 BKN300 23/13 Q1018 BLU+
Conditions at: ETSL (LECHFELD (GER-AF, DE) observed 1720 UTC 17 June 2019
Temperature: 23.0°C (73°F)
Dewpoint: 13.0°C (55°F) [RH = 53%]
Pressure (altimeter): 30.06 inches Hg (1018.0 mb)
Winds: from the NE (50 degrees) at 10 MPH (9 knots; 4.6 m/s)
Visibility: 6 or more miles (10+ km)
Ceiling: 30000 feet AGL
Clouds: few clouds at 4000 feet AGL
broken clouds at 30000 feet AGL
Weather: no significant weather observed at this time

METAR text: ETSL 171620Z 05011KT 9999 FEW035 SCT300 23/14 Q1018 BLU+
Conditions at: ETSL (LECHFELD (GER-AF, DE) observed 1620 UTC 17 June 2019
Temperature: 23.0°C (73°F)
Dewpoint: 14.0°C (57°F) [RH = 57%]
Pressure (altimeter): 30.06 inches Hg (1018.0 mb)
Winds: from the NE (50 degrees) at 13 MPH (11 knots; 5.7 m/s)
Visibility: 6 or more miles (10+ km)
Ceiling: at least 12,000 feet AGL
Clouds: few clouds at 3500 feet AGL
scattered clouds at 30000 feet AGL
Weather: no significant weather observed at this time

METAR text: ETSL 171520Z 04012KT 9999 FEW035 23/14 Q1018 BLU+FCST CANCEL
Conditions at: ETSL (LECHFELD (GER-AF, DE) observed 1520 UTC 17 June 2019
Temperature: 23.0°C (73°F)
Dewpoint: 14.0°C (57°F) [RH = 57%]
Pressure (altimeter): 30.06 inches Hg (1018.0 mb)
Winds: from the NE (40 degrees) at 14 MPH (12 knots; 6.2 m/s)
Visibility: 6 or more miles (10+ km)
Ceiling: at least 12,000 feet AGL
Clouds: few clouds at 3500 feet AGL
Weather: no significant weather observed at this time

METAR text: ETSL 171420Z 07011KT 9999 FEW035 24/14 Q1018 BLU+BLU+
Conditions at: ETSL (LECHFELD (GER-AF, DE) observed 1420 UTC 17 June 2019
Temperature: 24.0°C (75°F)
Dewpoint: 14.0°C (57°F) [RH = 54%]
Pressure (altimeter): 30.06 inches Hg (1018.0 mb)
Winds: from the ENE (70 degrees) at 13 MPH (11 knots; 5.7 m/s)
Visibility: 6 or more miles (10+ km)
Ceiling: at least 12,000 feet AGL
Clouds: few clouds at 3500 feet AGL
Weather: no significant weather observed at this time

METAR text: ETSL 171320Z 05012KT 9999 SCT035 22/14 Q1019 BLU+BLU+
Conditions at: ETSL (LECHFELD (GER-AF, DE) observed 1320 UTC 17 June 2019
Temperature: 22.0°C (72°F)
Dewpoint: 14.0°C (57°F) [RH = 60%]
Pressure (altimeter): 30.09 inches Hg (1019.0 mb)
Winds: from the NE (50 degrees) at 14 MPH (12 knots; 6.2 m/s)
Visibility: 6 or more miles (10+ km)
Ceiling: at least 12,000 feet AGL
Clouds: scattered clouds at 3500 feet AGL
Weather: no significant weather observed at this time

METAR text: ETSL 171220Z 05011KT 9999 SCT030 23/14 Q1019 BLU+BLU+
Conditions at: ETSL (LECHFELD (GER-AF, DE) observed 1220 UTC 17 June 2019
Temperature: 23.0°C (73°F)
Dewpoint: 14.0°C (57°F) [RH = 57%]
Pressure (altimeter): 30.09 inches Hg (1019.0 mb)
Winds: from the NE (50 degrees) at 13 MPH (11 knots; 5.7 m/s)
Visibility: 6 or more miles (10+ km)
Ceiling: at least 12,000 feet AGL
Clouds: scattered clouds at 3000 feet AGL
Weather: no significant weather observed at this time

METAR text: ETSL 171120Z 04010KT 9999 SCT030 22/14 Q1020 BLU+BLU+
Conditions at: ETSL (LECHFELD (GER-AF, DE) observed 1120 UTC 17 June 2019
Temperature: 22.0°C (72°F)
Dewpoint: 14.0°C (57°F) [RH = 60%]
Pressure (altimeter): 30.12 inches Hg (1020.0 mb)
Winds: from the NE (40 degrees) at 12 MPH (10 knots; 5.1 m/s)
Visibility: 6 or more miles (10+ km)
Ceiling: at least 12,000 feet AGL
Clouds: scattered clouds at 3000 feet AGL
Weather: no significant weather observed at this time

METAR text: ETSL 171020Z 06010KT 9999 FEW025 21/14 Q1020 BLU+BLU+
Conditions at: ETSL (LECHFELD (GER-AF, DE) observed 1020 UTC 17 June 2019
Temperature: 21.0°C (70°F)
Dewpoint: 14.0°C (57°F) [RH = 64%]
Pressure (altimeter): 30.12 inches Hg (1020.0 mb)
Winds: from the ENE (60 degrees) at 12 MPH (10 knots; 5.1 m/s)
Visibility: 6 or more miles (10+ km)
Ceiling: at least 12,000 feet AGL
Clouds: few clouds at 2500 feet AGL
Weather: no significant weather observed at this time

METAR text: ETSL 170920Z 05009KT 9999 SCT025 20/14 Q1020 BLU+BLU+
Conditions at: ETSL (LECHFELD (GER-AF, DE) observed 0920 UTC 17 June 2019
Temperature: 20.0°C (68°F)
Dewpoint: 14.0°C (57°F) [RH = 68%]
Pressure (altimeter): 30.12 inches Hg (1020.0 mb)
Winds: from the NE (50 degrees) at 10 MPH (9 knots; 4.6 m/s)
Visibility: 6 or more miles (10+ km)
Ceiling: at least 12,000 feet AGL
Clouds: scattered clouds at 2500 feet AGL
Weather: no significant weather observed at this time

METAR text: ETSL 170820Z 06009KT 9999 SCT020 18/13 Q1021 BLU+BLU+
Conditions at: ETSL (LECHFELD (GER-AF, DE) observed 0820 UTC 17 June 2019
Temperature: 18.0°C (64°F)
Dewpoint: 13.0°C (55°F) [RH = 73%]
Pressure (altimeter): 30.15 inches Hg (1021.0 mb)
Winds: from the ENE (60 degrees) at 10 MPH (9 knots; 4.6 m/s)
Visibility: 6 or more miles (10+ km)
Ceiling: at least 12,000 feet AGL
Clouds: scattered clouds at 2000 feet AGL
Weather: no significant weather observed at this time

METAR text: ETSL 170720Z 06008KT 9999 SCT010 17/14 Q1021 BLU+BLU+
Conditions at: ETSL (LECHFELD (GER-AF, DE) observed 0720 UTC 17 June 2019
Temperature: 17.0°C (63°F)
Dewpoint: 14.0°C (57°F) [RH = 82%]
Pressure (altimeter): 30.15 inches Hg (1021.0 mb)
Winds: from the ENE (60 degrees) at 9 MPH (8 knots; 4.1 m/s)
Visibility: 6 or more miles (10+ km)
Ceiling: at least 12,000 feet AGL
Clouds: scattered clouds at 1000 feet AGL
Weather: no significant weather observed at this time

METAR text: ETSL 170620Z 07005KT 8000 FEW004 15/15 Q1022 BLU+BLU+
Conditions at: ETSL (LECHFELD (GER-AF, DE) observed 0620 UTC 17 June 2019
Temperature: 15.0°C (59°F)
Dewpoint: 15.0°C (59°F) [RH = 100%]
Pressure (altimeter): 30.18 inches Hg (1022.0 mb)
Winds: from the ENE (70 degrees) at 6 MPH (5 knots; 2.6 m/s)
Visibility: 5 miles ( 8 km)
Ceiling: at least 12,000 feet AGL
Clouds: few clouds at 400 feet AGL
Weather: no significant weather observed at this time

METAR text: ETSL 170602Z 06004KT 6000 FEW003 14/14 Q1022 WHT WHT BECMG BLU+
Conditions at: ETSL (LECHFELD (GER-AF, DE) observed 0602 UTC 17 June 2019
Temperature: 14.0°C (57°F)
Dewpoint: 14.0°C (57°F) [RH = 100%]
Pressure (altimeter): 30.18 inches Hg (1022.0 mb)
Winds: from the ENE (60 degrees) at 5 MPH (4 knots; 2.1 m/s)
Visibility: 4 miles ( 6 km)
Ceiling: at least 12,000 feet AGL
Clouds: few clouds at 300 feet AGL
Weather: no significant weather observed at this time

METAR text: ETSL 170547Z 05003KT 4000 BR FEW002 14/13 Q1022 GRN GRN BECMG BLU+
Conditions at: ETSL (LECHFELD (GER-AF, DE) observed 0547 UTC 17 June 2019
Temperature: 14.0°C (57°F)
Dewpoint: 13.0°C (55°F) [RH = 94%]
Pressure (altimeter): 30.18 inches Hg (1022.0 mb)
Winds: from the NE (50 degrees) at 3 MPH (3 knots; 1.5 m/s)
Visibility: 2.49 miles (4.01 km)
Ceiling: at least 12,000 feet AGL
Clouds: few clouds at 200 feet AGL
Weather: BR  (mist)

METAR text: ETSL 170540Z 04002KT 2000 BR FEW001 13/13 Q1022 YLO YLO BECMG BLU+
Conditions at: ETSL (LECHFELD (GER-AF, DE) observed 0540 UTC 17 June 2019
Temperature: 13.0°C (55°F)
Dewpoint: 13.0°C (55°F) [RH = 100%]
Pressure (altimeter): 30.18 inches Hg (1022.0 mb)
Winds: from the NE (40 degrees) at 2 MPH (2 knots; 1.0 m/s)
Visibility: 1.24 miles (2.00 km)
Ceiling: at least 12,000 feet AGL
Clouds: few clouds at 100 feet AGL
Weather: BR  (mist)

METAR text: ETSL 170534Z 04002KT 1000 BR 13/12 Q1022 AMB AMB BECMG BLU+
Conditions at: ETSL (LECHFELD (GER-AF, DE) observed 0534 UTC 17 June 2019
Temperature: 13.0°C (55°F)
Dewpoint: 12.0°C (54°F) [RH = 94%]
Pressure (altimeter): 30.18 inches Hg (1022.0 mb)
Winds: from the NE (40 degrees) at 2 MPH (2 knots; 1.0 m/s)
Visibility: 0.62 miles (1.00 km)
Ceiling: unknown
Clouds: missing
Weather: BR  (mist)

METAR text: ETSL 170520Z 02002KT 0300 FG 12/12 Q1022 RED RED BECMG BLU+
Conditions at: ETSL (LECHFELD (GER-AF, DE) observed 0520 UTC 17 June 2019
Temperature: 12.0°C (54°F)
Dewpoint: 12.0°C (54°F) [RH = 100%]
Pressure (altimeter): 30.18 inches Hg (1022.0 mb)
Winds: from the NNE (20 degrees) at 2 MPH (2 knots; 1.0 m/s)
Visibility: 0.19 miles (0.31 km)
Ceiling: unknown
Clouds: missing
Weather: FG  (fog)

METAR text: ETSL 170420Z VRB01KT 0300 FG FEW090 10/10 Q1022 RED RED BECMG BLU+
Conditions at: ETSL (LECHFELD (GER-AF, DE) observed 0420 UTC 17 June 2019
Temperature: 10.0°C (50°F)
Dewpoint: 10.0°C (50°F) [RH = 100%]
Pressure (altimeter): 30.18 inches Hg (1022.0 mb)
Winds: variable direction winds at 1 MPH (1 knots; 0.5 m/s)
Visibility: 0.19 miles (0.31 km)
Ceiling: at least 12,000 feet AGL
Clouds: few clouds at 9000 feet AGL
Weather: FG  (fog)

METAR text: ETSL 170320Z 07001KT 0300 FG FEW090 10/10 Q1022 RED
Conditions at: ETSL (LECHFELD (GER-AF, DE) observed 0320 UTC 17 June 2019
Temperature: 10.0°C (50°F)
Dewpoint: 10.0°C (50°F) [RH = 100%]
Pressure (altimeter): 30.18 inches Hg (1022.0 mb)
Winds: from the ENE (70 degrees) at 1 MPH (1 knots; 0.5 m/s)
Visibility: 0.19 miles (0.31 km)
Ceiling: at least 12,000 feet AGL
Clouds: few clouds at 9000 feet AGL
Weather: FG  (fog)

METAR text: ETSL 170220Z 08001KT 0600 FG SCT002 11/10 Q1022 RED
Conditions at: ETSL (LECHFELD (GER-AF, DE) observed 0220 UTC 17 June 2019
Temperature: 11.0°C (52°F)
Dewpoint: 10.0°C (50°F) [RH = 94%]
Pressure (altimeter): 30.18 inches Hg (1022.0 mb)
Winds: from the E (80 degrees) at 1 MPH (1 knots; 0.5 m/s)
Visibility: 0.37 miles (0.60 km)
Ceiling: at least 12,000 feet AGL
Clouds: scattered clouds at 200 feet AGL
Weather: FG  (fog)

METAR text: ETSL 170150Z 12005KT 3000 BCFG SCT002 09/09 Q1022 YLO
Conditions at: ETSL (LECHFELD (GER-AF, DE) observed 0150 UTC 17 June 2019
Temperature: 9.0°C (48°F)
Dewpoint: 9.0°C (48°F) [RH = 100%]
Pressure (altimeter): 30.18 inches Hg (1022.0 mb)
Winds: from the ESE (120 degrees) at 6 MPH (5 knots; 2.6 m/s)
Visibility: 1.86 miles (2.99 km)
Ceiling: at least 12,000 feet AGL
Clouds: scattered clouds at 200 feet AGL
Weather: BCFG  (patches of fog)

METAR text: ETSL 170120Z 32003KT 9999 MIFG FEW050 11/11 Q1022 BLU+
Conditions at: ETSL (LECHFELD (GER-AF, DE) observed 0120 UTC 17 June 2019
Temperature: 11.0°C (52°F)
Dewpoint: 11.0°C (52°F) [RH = 100%]
Pressure (altimeter): 30.18 inches Hg (1022.0 mb)
Winds: from the NW (320 degrees) at 3 MPH (3 knots; 1.5 m/s)
Visibility: 6 or more miles (10+ km)
Ceiling: at least 12,000 feet AGL
Clouds: few clouds at 5000 feet AGL
Weather: MIFG  (shallow fog)

METAR text: ETSL 170020Z 24001KT 9999 MIFG FEW050 12/12 Q1022 BLU+
Conditions at: ETSL (LECHFELD (GER-AF, DE) observed 0020 UTC 17 June 2019
Temperature: 12.0°C (54°F)
Dewpoint: 12.0°C (54°F) [RH = 100%]
Pressure (altimeter): 30.18 inches Hg (1022.0 mb)
Winds: from the WSW (240 degrees) at 1 MPH (1 knots; 0.5 m/s)
Visibility: 6 or more miles (10+ km)
Ceiling: at least 12,000 feet AGL
Clouds: few clouds at 5000 feet AGL
Weather: MIFG  (shallow fog)

METAR text: ETSL 162320Z 16002KT 9999 MIFG FEW050 11/11 Q1023 BLU+
Conditions at: ETSL (LECHFELD (GER-AF, DE) observed 2320 UTC 16 June 2019
Temperature: 11.0°C (52°F)
Dewpoint: 11.0°C (52°F) [RH = 100%]
Pressure (altimeter): 30.21 inches Hg (1023.0 mb)
Winds: from the SSE (160 degrees) at 2 MPH (2 knots; 1.0 m/s)
Visibility: 6 or more miles (10+ km)
Ceiling: at least 12,000 feet AGL
Clouds: few clouds at 5000 feet AGL
Weather: MIFG  (shallow fog)

Forecast for: ETSL (LECHFELD (GER-AF, DE)
Text: TAF ETSL 181015Z 1811/1820 30006KT 9999 NSW SCT030 BY ETGL
Forecast period: 1100 to 2000 UTC 18 June 2019
Forecast type: FROM: standard forecast or significant change
Winds: from the WNW (300 degrees) at 7 MPH (6 knots; 3.1 m/s)
Visibility: 6 or more miles 10+ km)
Ceiling: at least 12,000 feet AGL
Clouds: scattered clouds at 3000 feet AGL
Weather: NSW  (no significant weather)